createdAt,value
2022-09-04T01:02:58.631Z,11.43
2022-09-04T01:05:57.865Z,12.57
2022-09-04T01:08:56.716Z,12.60
2022-09-04T01:14:25.535Z,13.55
2022-09-04T01:17:01.386Z,13.13
2022-09-04T01:19:50.926Z,13.93
2022-09-04T01:22:36.492Z,13.82
2022-09-04T01:25:14.317Z,13.40
2022-09-04T01:27:51.533Z,12.93
2022-09-04T01:30:21.146Z,12.93
2022-09-04T01:33:00.790Z,12.98
2022-09-04T01:35:35.408Z,13.38
2022-09-04T01:38:14.068Z,13.48
2022-09-04T01:40:48.146Z,13.40
2022-09-04T01:43:21.108Z,13.50
2022-09-04T01:46:13.046Z,13.55
2022-09-04T01:48:53.725Z,13.23
2022-09-04T01:51:29.098Z,13.32
2022-09-04T01:54:08.449Z,12.68
2022-09-04T01:56:42.302Z,14.50
2022-09-04T01:59:19.257Z,14.85
2022-09-04T02:01:53.647Z,14.07
2022-09-04T02:04:27.742Z,14.88
2022-09-04T02:07:06.253Z,15.82
2022-09-04T02:09:42.301Z,15.10
2022-09-04T02:12:27.333Z,16.27
2022-09-04T02:15:07.319Z,16.60
2022-09-04T02:17:43.605Z,14.80
2022-09-04T02:20:22.461Z,14.80
2022-09-04T02:23:00.076Z,14.88
2022-09-04T02:25:33.317Z,15.07
2022-09-04T02:28:15.416Z,15.15
2022-09-04T02:30:54.464Z,14.75
2022-09-04T02:33:30.041Z,13.95
2022-09-04T02:36:03.517Z,14.05
2022-09-04T02:38:39.832Z,13.65
2022-09-04T02:41:19.580Z,14.98
2022-09-04T02:44:03.152Z,14.90
2022-09-04T02:46:43.388Z,14.88
2022-09-04T02:49:20.226Z,15.10
2022-09-04T02:51:59.068Z,15.82
2022-09-04T02:54:41.812Z,14.77
2022-09-04T02:57:20.288Z,13.93
2022-09-04T03:00:04.785Z,14.73
2022-09-04T03:02:39.164Z,15.63
2022-09-04T03:05:18.819Z,15.52
2022-09-04T03:07:57.391Z,15.52
2022-09-04T03:10:31.309Z,15.15
2022-09-04T03:13:06.273Z,14.63
2022-09-04T03:15:44.373Z,15.57
2022-09-04T03:18:20.897Z,13.57
2022-09-04T03:20:55.775Z,14.70
2022-09-04T03:23:33.706Z,15.48
2022-09-04T03:26:16.615Z,15.57
2022-09-04T03:29:00.087Z,16.23
2022-09-04T03:31:36.988Z,16.85
2022-09-04T03:34:16.190Z,17.45
2022-09-04T03:36:58.597Z,16.65
2022-09-04T03:39:39.071Z,17.48
2022-09-04T03:42:16.814Z,17.63
2022-09-04T03:44:59.899Z,18.58
2022-09-04T03:47:36.271Z,18.88
2022-09-04T03:50:16.869Z,17.77
2022-09-04T03:52:56.074Z,18.83
2022-09-04T03:55:57.509Z,19.25
2022-09-04T03:58:37.043Z,18.52
2022-09-04T04:01:13.253Z,19.63
2022-09-04T04:04:01.428Z,19.58
2022-09-04T04:06:39.469Z,20.52
2022-09-04T04:09:30.617Z,21.50
2022-09-04T04:12:13.462Z,19.38
2022-09-04T04:14:57.149Z,19.45
2022-09-04T04:17:44.748Z,20.35
2022-09-04T04:20:22.956Z,21.27
2022-09-04T04:23:17.687Z,21.05
2022-09-04T04:26:04.820Z,21.60
2022-09-04T04:28:51.633Z,20.60
2022-09-04T04:31:27.726Z,21.13
2022-09-04T04:34:03.796Z,20.75
2022-09-04T04:36:40.271Z,21.05
2022-09-04T04:39:20.290Z,21.70
2022-09-04T04:42:07.693Z,22.33
2022-09-04T04:45:29.547Z,21.52
2022-09-04T04:48:29.939Z,23.52
2022-09-04T04:51:09.543Z,28.00
2022-09-04T04:53:46.889Z,21.83
2022-09-04T04:56:23.839Z,20.33
2022-09-04T04:59:04.406Z,20.10
2022-09-04T05:01:46.800Z,20.17
2022-09-04T05:06:55.136Z,18.98
2022-09-04T05:09:30.063Z,19.35
2022-09-04T05:12:10.469Z,19.70
2022-09-04T05:14:51.449Z,19.40
2022-09-04T05:17:27.837Z,19.85
2022-09-04T05:20:21.470Z,19.75
2022-09-04T05:22:57.671Z,19.95
2022-09-04T05:25:37.965Z,19.63
2022-09-04T05:28:21.227Z,20.27
2022-09-04T05:30:57.161Z,20.52
2022-09-04T05:33:34.791Z,19.70
2022-09-04T05:36:10.957Z,17.90
2022-09-04T05:38:48.725Z,18.35
2022-09-04T05:41:31.693Z,17.60
2022-09-04T05:44:18.613Z,18.50
2022-09-04T05:46:58.659Z,17.10
2022-09-04T05:49:43.433Z,17.48
2022-09-04T05:52:37.249Z,15.80
2022-09-04T05:55:23.914Z,17.23
2022-09-04T05:58:02.749Z,15.68
2022-09-04T06:00:45.142Z,16.60
2022-09-04T06:03:33.871Z,16.70
2022-09-04T06:06:09.869Z,16.48
2022-09-04T06:09:12.469Z,17.42
2022-09-04T06:12:19.331Z,17.92
2022-09-04T06:15:22.764Z,17.85
2022-09-04T06:18:08.303Z,17.52
2022-09-04T06:20:50.846Z,16.88
2022-09-04T06:23:43.540Z,17.67
2022-09-04T06:26:35.552Z,18.45
2022-09-04T06:29:12.757Z,19.50
2022-09-04T06:31:59.672Z,18.58
2022-09-04T06:34:55.286Z,17.52
2022-09-04T06:37:36.111Z,20.60
2022-09-04T06:40:20.426Z,20.52
2022-09-04T06:42:59.853Z,19.38
2022-09-04T06:45:44.367Z,19.58
2022-09-04T06:48:23.085Z,19.25
2022-09-04T06:51:07.751Z,19.10
2022-09-04T06:53:42.510Z,17.90
2022-09-04T06:56:29.433Z,18.73
2022-09-04T06:59:26.962Z,19.98
2022-09-04T07:02:10.857Z,18.25
2022-09-04T07:04:51.308Z,19.42
2022-09-04T07:07:26.278Z,20.25
2022-09-04T07:10:01.321Z,19.73
2022-09-04T07:12:54.054Z,19.50
2022-09-04T07:15:56.907Z,18.85
2022-09-04T07:18:40.794Z,18.85
2022-09-04T07:21:17.274Z,20.35
2022-09-04T07:23:55.812Z,19.15
2022-09-04T07:26:35.227Z,19.35
2022-09-04T07:29:30.401Z,19.02
2022-09-04T07:32:05.777Z,18.33
2022-09-04T07:34:44.522Z,18.02
2022-09-04T07:37:25.016Z,16.85
2022-09-04T07:40:04.855Z,16.77
2022-09-04T07:42:44.218Z,17.13
2022-09-04T07:45:22.989Z,16.15
2022-09-04T07:47:58.422Z,17.70
2022-09-04T07:50:32.982Z,15.82
2022-09-04T07:53:20.695Z,14.60
